Time;durP1;ratioP1;P1;durP2;ratioP2;P2;SDS_P1;SDS_P2;PMS_P1;PMS_P2;Temp;Humidity;BMP_temperature;BMP_pressure;BME280_temperature;BME280_humidity;BME280_pressure;Samples;Min_cycle;Max_cycle;Signal;HPM_P1;HPM_P2
2022/07/18 00:01:06;;;;;;;5.22;2.80;;;16.30;99.90;;;;;;5075142;28;20078;-71
2022/07/18 00:03:31;;;;;;;3.97;2.35;;;16.30;99.90;;;;;;5074572;28;20047;-70
2022/07/18 00:05:57;;;;;;;4.47;2.40;;;16.30;99.90;;;;;;5074398;28;20124;-70
2022/07/18 00:08:23;;;;;;;5.40;2.97;;;16.20;99.90;;;;;;5074703;28;20049;-70
2022/07/18 00:10:48;;;;;;;5.72;2.70;;;16.20;99.90;;;;;;5074516;28;20044;-70
2022/07/18 00:13:14;;;;;;;7.10;2.85;;;16.10;99.90;;;;;;5056905;28;20051;-70
2022/07/18 00:15:39;;;;;;;7.57;2.70;;;16.10;99.90;;;;;;5060319;28;20105;-70
2022/07/18 00:18:05;;;;;;;5.82;3.10;;;16.10;99.90;;;;;;5060650;28;20087;-70
2022/07/18 00:20:31;;;;;;;6.35;3.00;;;16.10;99.90;;;;;;5077988;28;20155;-70
2022/07/18 00:22:56;;;;;;;4.90;2.80;;;16.10;99.90;;;;;;5078262;28;20049;-70
2022/07/18 00:25:22;;;;;;;5.30;2.95;;;16.00;99.90;;;;;;5078088;28;20045;-70
2022/07/18 00:27:48;;;;;;;7.85;3.13;;;16.00;99.90;;;;;;5078425;28;20040;-70
2022/07/18 00:30:14;;;;;;;6.93;2.80;;;16.00;99.90;;;;;;5060540;28;20036;-71
2022/07/18 00:32:40;;;;;;;5.90;2.97;;;16.00;99.90;;;;;;5060634;28;20056;-70
2022/07/18 00:35:06;;;;;;;7.78;2.90;;;15.90;99.90;;;;;;5078444;28;20075;-70
2022/07/18 00:37:32;;;;;;;6.15;2.83;;;15.80;99.90;;;;;;5077956;28;20055;-70
2022/07/18 00:39:57;;;;;;;5.47;2.92;;;15.80;99.90;;;;;;5077913;28;20120;-70
2022/07/18 00:42:23;;;;;;;5.25;3.15;;;15.80;99.90;;;;;;5043103;28;20102;-70
2022/07/18 00:44:54;;;;;;;6.25;2.85;;;15.70;99.90;;;;;;5078071;28;20045;-70
2022/07/18 00:47:20;;;;;;;6.80;3.35;;;15.70;99.90;;;;;;5077705;28;20461;-71
2022/07/18 00:49:45;;;;;;;8.52;3.20;;;15.70;99.90;;;;;;5077636;28;20052;-70
2022/07/18 00:52:12;;;;;;;5.68;2.85;;;15.60;99.90;;;;;;5078272;28;20080;-70
2022/07/18 00:54:39;;;;;;;8.30;3.40;;;15.60;99.90;;;;;;5075398;28;20061;-70
2022/07/18 00:57:05;;;;;;;5.10;2.80;;;15.60;99.90;;;;;;5077888;28;20052;-71
2022/07/18 01:02:15;;;;;;;7.82;2.95;;;15.50;99.90;;;;;;5077228;28;20134;-70
2022/07/18 01:04:41;;;;;;;6.53;3.38;;;15.50;99.90;;;;;;5077906;28;20127;-70
2022/07/18 01:07:07;;;;;;;4.82;2.78;;;15.40;99.90;;;;;;5059870;28;20131;-70
2022/07/18 01:09:32;;;;;;;6.70;3.08;;;15.40;99.90;;;;;;5077957;28;20430;-70
2022/07/18 01:11:58;;;;;;;5.85;2.90;;;15.40;99.90;;;;;;5077919;28;20033;-71
2022/07/18 01:14:25;;;;;;;6.72;2.70;;;15.30;99.90;;;;;;5077217;28;20048;-70
2022/07/18 01:16:51;;;;;;;5.00;3.20;;;15.30;99.90;;;;;;5077206;28;20048;-70
2022/07/18 01:19:16;;;;;;;7.22;3.25;;;15.30;99.90;;;;;;5077393;28;20055;-70
2022/07/18 01:21:42;;;;;;;5.78;2.88;;;15.30;99.90;;;;;;5076870;28;20465;-70
2022/07/18 01:24:08;;;;;;;10.57;3.47;;;15.30;99.90;;;;;;5077111;28;20040;-69
2022/07/18 01:26:33;;;;;;;6.25;3.15;;;15.30;99.90;;;;;;5077131;28;20045;-70
2022/07/18 01:28:59;;;;;;;6.05;3.30;;;15.30;99.90;;;;;;5077589;28;20076;-70
2022/07/18 01:31:25;;;;;;;10.52;3.47;;;15.30;99.90;;;;;;5042816;28;20114;-70
2022/07/18 01:33:54;;;;;;;6.28;3.30;;;15.20;99.90;;;;;;5077380;28;20048;-71
2022/07/18 01:36:19;;;;;;;5.75;3.15;;;15.20;99.90;;;;;;5077290;28;20052;-70
2022/07/18 01:38:45;;;;;;;7.18;3.50;;;15.20;99.90;;;;;;5076796;28;20058;-70
2022/07/18 01:41:11;;;;;;;7.47;3.42;;;15.20;99.90;;;;;;5076697;28;20048;-70
2022/07/18 01:43:41;;;;;;;8.90;3.15;;;15.20;99.90;;;;;;5076801;28;20051;-70
2022/07/18 01:46:08;;;;;;;6.97;3.17;;;15.10;99.90;;;;;;5076429;28;20052;-70
2022/07/18 01:48:37;;;;;;;10.15;3.47;;;15.10;99.90;;;;;;5077190;28;20119;-70
2022/07/18 01:51:03;;;;;;;6.75;3.20;;;15.10;99.90;;;;;;5076558;28;20048;-70
2022/07/18 01:53:28;;;;;;;7.10;3.47;;;15.10;99.90;;;;;;5076840;28;20105;-70
2022/07/18 01:55:54;;;;;;;6.90;3.25;;;15.10;99.90;;;;;;5076287;28;20532;-70
2022/07/18 01:58:20;;;;;;;6.82;3.00;;;15.10;99.90;;;;;;5076226;28;20040;-70
2022/07/18 02:00:45;;;;;;;6.50;2.83;;;15.00;99.90;;;;;;5076341;28;20046;-70
2022/07/18 02:03:11;;;;;;;7.13;3.53;;;15.10;99.90;;;;;;5076840;28;20055;-70
2022/07/18 02:05:37;;;;;;;5.22;2.97;;;15.00;99.90;;;;;;5076283;28;20484;-70
2022/07/18 02:08:02;;;;;;;7.70;3.53;;;15.00;99.90;;;;;;5076209;28;20131;-70
2022/07/18 02:10:28;;;;;;;7.40;3.28;;;15.00;99.90;;;;;;5076545;28;20372;-70
2022/07/18 02:12:54;;;;;;;6.05;3.67;;;15.00;99.90;;;;;;5076238;28;20119;-70
2022/07/18 02:15:19;;;;;;;5.63;3.55;;;15.00;99.90;;;;;;5076539;28;20056;-70
2022/07/18 02:17:45;;;;;;;8.02;2.78;;;15.00;99.90;;;;;;5075839;28;20044;-70
2022/07/18 02:20:12;;;;;;;7.20;2.92;;;14.90;99.90;;;;;;5076206;28;20045;-70
2022/07/18 02:22:38;;;;;;;8.05;3.50;;;15.00;99.90;;;;;;5058784;28;20055;-70
2022/07/18 02:25:05;;;;;;;12.30;3.45;;;14.90;99.90;;;;;;5058589;28;20052;-70
2022/07/18 02:27:31;;;;;;;5.88;3.00;;;15.00;99.90;;;;;;5058577;28;20453;-70
2022/07/18 02:29:56;;;;;;;6.05;3.38;;;15.00;99.90;;;;;;5075692;28;20059;-70
2022/07/18 02:32:23;;;;;;;6.10;3.30;;;15.00;99.90;;;;;;5075790;28;20193;-70
2022/07/18 02:34:49;;;;;;;5.90;3.40;;;14.80;99.90;;;;;;5076271;28;20048;-71
2022/07/18 02:37:14;;;;;;;6.03;3.20;;;14.90;99.90;;;;;;5075146;28;20041;-70
2022/07/18 02:39:40;;;;;;;7.03;3.72;;;14.90;99.90;;;;;;5076193;28;20369;-70
2022/07/18 02:42:06;;;;;;;6.25;3.17;;;14.90;99.90;;;;;;5040875;28;20059;-70
2022/07/18 02:44:31;;;;;;;6.47;3.80;;;14.90;99.90;;;;;;5075122;28;20044;-70
2022/07/18 02:46:57;;;;;;;8.88;3.67;;;14.90;99.90;;;;;;5075444;28;20049;-70
2022/07/18 02:49:29;;;;;;;8.18;3.13;;;14.90;99.90;;;;;;5075874;28;20048;-70
2022/07/18 02:52:02;;;;;;;8.05;3.55;;;14.90;99.90;;;;;;5075968;28;20037;-70
2022/07/18 02:54:30;;;;;;;5.10;3.22;;;14.90;99.90;;;;;;5075352;28;20071;-70
2022/07/18 02:56:56;;;;;;;6.78;3.60;;;14.90;99.90;;;;;;5074961;28;20040;-70
2022/07/18 02:59:22;;;;;;;6.85;3.63;;;14.90;99.90;;;;;;5075226;28;20110;-70
2022/07/18 03:01:48;;;;;;;6.13;3.17;;;14.90;99.90;;;;;;5075240;28;20127;-70
2022/07/18 03:04:14;;;;;;;7.10;3.08;;;14.90;99.90;;;;;;5075428;28;20055;-70
2022/07/18 03:06:40;;;;;;;7.55;3.45;;;14.90;99.90;;;;;;5075051;28;20048;-70
2022/07/18 03:09:06;;;;;;;5.35;3.35;;;14.90;99.90;;;;;;5075677;28;20076;-70
2022/07/18 03:11:32;;;;;;;6.72;3.38;;;14.90;99.90;;;;;;5075054;28;20206;-70
2022/07/18 03:13:57;;;;;;;7.35;4.18;;;14.90;99.90;;;;;;5075089;28;20064;-70
2022/07/18 03:16:23;;;;;;;6.57;3.05;;;14.80;99.90;;;;;;5075288;28;20044;-70
2022/07/18 03:18:48;;;;;;;5.72;3.13;;;14.80;99.90;;;;;;5075279;28;20044;-70
2022/07/18 03:21:14;;;;;;;7.38;3.47;;;14.80;99.90;;;;;;5075177;28;20045;-70
2022/07/18 03:23:40;;;;;;;16.10;4.03;;;14.80;99.90;;;;;;5075192;28;20036;-70
2022/07/18 03:26:05;;;;;;;7.18;3.40;;;14.90;99.90;;;;;;5074945;28;20133;-70
2022/07/18 03:28:31;;;;;;;6.22;3.40;;;15.00;99.90;;;;;;5074801;28;20193;-70
2022/07/18 03:30:58;;;;;;;7.00;3.38;;;14.90;99.90;;;;;;5074817;28;20044;-70
2022/07/18 03:33:25;;;;;;;5.38;3.08;;;14.90;99.90;;;;;;5075336;28;20102;-70
2022/07/18 03:35:50;;;;;;;6.93;4.13;;;14.90;99.90;;;;;;5075126;28;20075;-70
2022/07/18 03:38:16;;;;;;;6.97;3.35;;;14.90;99.90;;;;;;5074719;28;20449;-70
2022/07/18 03:40:41;;;;;;;5.53;3.35;;;14.90;99.90;;;;;;5074750;28;20135;-70
2022/07/18 03:43:07;;;;;;;5.85;3.13;;;14.90;99.90;;;;;;5074361;28;20090;-70
2022/07/18 03:45:33;;;;;;;6.72;3.17;;;14.90;99.90;;;;;;5040182;28;20140;-70
2022/07/18 03:47:58;;;;;;;6.47;3.22;;;15.00;99.90;;;;;;5074729;28;20068;-70
2022/07/18 03:50:24;;;;;;;6.40;3.22;;;14.90;99.90;;;;;;5060179;28;20056;-70
2022/07/18 03:52:49;;;;;;;7.03;3.60;;;15.00;99.90;;;;;;5079000;28;20123;-70
2022/07/18 03:55:15;;;;;;;5.68;3.03;;;14.90;99.90;;;;;;5078661;28;20052;-70
2022/07/18 03:57:41;;;;;;;7.60;3.42;;;14.90;99.90;;;;;;5078634;28;20083;-70
2022/07/18 04:00:09;;;;;;;7.63;3.50;;;14.90;99.90;;;;;;5078722;28;20040;-70
2022/07/18 04:02:39;;;;;;;6.55;3.45;;;15.00;99.90;;;;;;5166705;22;20346;-68
2022/07/18 04:05:05;;;;;;;4.90;2.92;;;15.00;99.90;;;;;;5058614;28;20136;-70
2022/07/18 04:07:30;;;;;;;5.47;2.95;;;15.00;99.90;;;;;;5057718;28;20106;-70
2022/07/18 04:09:56;;;;;;;4.78;3.05;;;15.00;99.90;;;;;;5058450;28;20041;-71
2022/07/18 04:12:21;;;;;;;5.22;2.90;;;15.10;99.90;;;;;;5058434;28;20056;-70
2022/07/18 04:14:47;;;;;;;7.13;3.10;;;15.10;99.90;;;;;;5058596;28;20053;-70
2022/07/18 04:17:12;;;;;;;7.05;3.35;;;15.20;99.90;;;;;;5057931;28;20049;-70
2022/07/18 04:19:38;;;;;;;6.78;3.67;;;15.10;99.90;;;;;;5057142;28;20049;-70
2022/07/18 04:22:04;;;;;;;13.77;3.42;;;15.10;99.90;;;;;;5058260;28;20373;-70
2022/07/18 04:24:29;;;;;;;8.95;3.08;;;15.20;99.90;;;;;;5058719;28;20072;-69
2022/07/18 04:26:55;;;;;;;6.15;2.83;;;15.20;99.90;;;;;;5058052;28;20052;-70
2022/07/18 04:29:21;;;;;;;7.05;3.20;;;15.30;99.90;;;;;;5058501;28;20063;-70
2022/07/18 04:31:46;;;;;;;6.22;3.40;;;15.40;99.90;;;;;;5057866;28;20123;-70
2022/07/18 04:34:12;;;;;;;6.75;3.33;;;15.50;99.90;;;;;;5058199;28;20048;-70
2022/07/18 04:36:38;;;;;;;7.03;3.50;;;15.50;99.90;;;;;;5058013;28;20041;-70
2022/07/18 04:39:03;;;;;;;6.28;2.70;;;15.70;99.90;;;;;;5057989;28;20052;-70
2022/07/18 04:41:29;;;;;;;8.57;2.95;;;15.70;99.90;;;;;;5058268;28;20048;-70
2022/07/18 04:43:55;;;;;;;6.22;3.30;;;15.60;99.90;;;;;;5057707;28;20477;-70
2022/07/18 04:46:20;;;;;;;6.13;2.65;;;15.80;99.90;;;;;;5057739;28;20128;-70
2022/07/18 04:48:46;;;;;;;6.43;2.83;;;15.90;99.90;;;;;;5057966;28;20125;-70
2022/07/18 04:51:12;;;;;;;5.50;3.03;;;16.00;99.90;;;;;;5056974;28;20355;-70
2022/07/18 04:53:37;;;;;;;5.50;3.13;;;16.10;99.90;;;;;;5057811;28;20041;-70
2022/07/18 04:56:03;;;;;;;7.10;3.20;;;16.30;99.90;;;;;;5057406;28;20041;-70
2022/07/18 04:58:29;;;;;;;6.15;2.70;;;16.40;99.90;;;;;;5057477;28;20369;-70
2022/07/18 05:00:55;;;;;;;6.47;3.60;;;16.50;99.90;;;;;;5056545;28;20127;-70
2022/07/18 05:03:21;;;;;;;4.45;2.28;;;16.70;99.90;;;;;;5056568;28;20381;-70
2022/07/18 05:05:47;;;;;;;6.68;2.85;;;16.80;99.90;;;;;;5057447;28;20070;-70
2022/07/18 05:08:13;;;;;;;5.78;2.40;;;16.90;99.90;;;;;;5057493;28;20055;-70
2022/07/18 05:10:40;;;;;;;5.32;2.50;;;17.10;99.90;;;;;;5056277;28;20049;-70
2022/07/18 05:13:05;;;;;;;5.68;2.88;;;17.10;99.90;;;;;;5057028;28;20123;-70
2022/07/18 05:15:31;;;;;;;4.90;2.22;;;17.20;99.90;;;;;;5057220;28;20080;-70
2022/07/18 05:17:57;;;;;;;5.65;2.30;;;17.30;99.90;;;;;;5057254;28;20118;-70
2022/07/18 05:20:25;;;;;;;5.68;2.67;;;17.30;99.90;;;;;;5057050;28;20041;-70
2022/07/18 05:22:51;;;;;;;5.97;2.08;;;17.40;99.90;;;;;;5057248;28;20052;-70
2022/07/18 05:25:17;;;;;;;7.35;2.45;;;17.40;99.90;;;;;;5056764;28;20468;-70
2022/07/18 05:27:43;;;;;;;4.07;2.28;;;17.50;99.90;;;;;;5055717;28;20075;-70
2022/07/18 05:30:11;;;;;;;4.97;2.50;;;17.50;99.90;;;;;;5057298;28;20040;-70
2022/07/18 05:32:37;;;;;;;4.68;2.13;;;17.60;99.90;;;;;;5056829;28;20064;-70
2022/07/18 05:35:03;;;;;;;3.88;2.22;;;17.60;99.90;;;;;;5057065;28;20045;-70
2022/07/18 05:37:29;;;;;;;6.68;2.67;;;17.80;99.90;;;;;;5057282;28;20057;-70
2022/07/18 05:39:54;;;;;;;3.72;2.00;;;17.90;99.90;;;;;;5056756;28;20040;-70
2022/07/18 05:42:20;;;;;;;4.03;1.88;;;18.00;99.90;;;;;;5056527;28;20102;-70
2022/07/18 05:44:46;;;;;;;5.60;2.35;;;18.10;99.90;;;;;;5056697;28;20101;-71
2022/07/18 05:47:13;;;;;;;5.07;2.45;;;18.20;99.90;;;;;;5056638;28;20381;-70
2022/07/18 05:49:39;;;;;;;4.97;1.88;;;18.30;99.90;;;;;;5056588;28;20041;-70
2022/07/18 05:52:05;;;;;;;4.57;1.73;;;18.30;99.90;;;;;;5055626;28;20053;-70
2022/07/18 05:54:30;;;;;;;4.32;2.00;;;18.40;99.90;;;;;;5056312;28;20049;-70
2022/07/18 05:56:56;;;;;;;6.38;2.25;;;18.50;99.90;;;;;;5056841;28;20346;-70
2022/07/18 05:59:21;;;;;;;3.47;1.60;;;18.60;99.90;;;;;;5056279;28;20055;-71
2022/07/18 06:01:48;;;;;;;5.03;2.00;;;18.50;99.90;;;;;;5056439;28;20041;-70
2022/07/18 06:04:14;;;;;;;4.15;2.22;;;18.60;99.90;;;;;;5056263;28;20053;-70
2022/07/18 06:06:40;;;;;;;3.95;2.13;;;18.70;99.90;;;;;;5056226;28;20106;-70
2022/07/18 06:09:05;;;;;;;3.42;1.83;;;18.80;99.90;;;;;;5055922;28;20095;-70
2022/07/18 06:11:31;;;;;;;5.93;1.70;;;18.90;99.90;;;;;;5055546;28;20132;-70
2022/07/18 06:13:57;;;;;;;16.50;2.13;;;19.10;99.90;;;;;;5054889;28;20045;-71
2022/07/18 06:16:23;;;;;;;3.55;1.75;;;19.30;99.90;;;;;;5056139;28;20049;-70
2022/07/18 06:18:49;;;;;;;2.88;1.50;;;19.60;99.90;;;;;;5056053;28;20484;-70
2022/07/18 06:21:14;;;;;;;3.70;1.70;;;19.90;99.90;;;;;;5056020;28;20048;-70
2022/07/18 06:23:40;;;;;;;4.60;1.50;;;20.30;99.90;;;;;;5055846;28;20033;-70
2022/07/18 06:26:06;;;;;;;4.78;1.65;;;20.70;99.90;;;;;;5056257;28;20128;-70
2022/07/18 06:28:32;;;;;;;4.90;1.30;;;21.10;99.90;;;;;;5055887;28;20041;-71
2022/07/18 06:30:57;;;;;;;3.72;1.75;;;21.50;99.90;;;;;;5056074;28;20476;-71
2022/07/18 06:33:23;;;;;;;5.57;1.60;;;21.90;99.90;;;;;;5055833;28;20045;-71
2022/07/18 06:35:49;;;;;;;3.85;1.52;;;22.30;99.90;;;;;;5055824;28;20127;-71
2022/07/18 06:38:15;;;;;;;6.70;1.80;;;22.60;99.90;;;;;;5055430;28;20469;-71
2022/07/18 06:40:42;;;;;;;2.80;1.33;;;23.60;99.80;;;;;;5056038;28;20090;-71
2022/07/18 06:43:08;;;;;;;5.78;1.73;;;24.80;98.30;;;;;;5055611;28;20132;-71
2022/07/18 06:45:34;;;;;;;6.40;1.55;;;25.80;96.90;;;;;;5055562;28;20163;-70
2022/07/18 06:47:59;;;;;;;4.93;1.50;;;25.90;95.70;;;;;;5056081;28;20037;-71
2022/07/18 06:50:25;;;;;;;5.40;1.63;;;26.20;95.70;;;;;;5055468;28;20464;-71
2022/07/18 06:52:51;;;;;;;4.70;1.98;;;25.90;95.30;;;;;;5055337;28;20136;-71
2022/07/18 06:55:17;;;;;;;5.30;1.20;;;25.50;95.20;;;;;;5055361;28;20049;-71
2022/07/18 06:57:43;;;;;;;3.60;1.55;;;25.40;95.50;;;;;;5055284;28;20037;-70
2022/07/18 07:00:10;;;;;;;3.20;1.55;;;25.30;95.20;;;;;;5055729;28;20347;-71
2022/07/18 07:02:41;;;;;;;3.35;1.70;;;26.30;95.80;;;;;;5055414;28;20068;-71
2022/07/18 07:05:07;;;;;;;4.32;1.83;;;27.60;94.20;;;;;;5055107;28;20051;-71
2022/07/18 07:07:32;;;;;;;7.28;1.77;;;28.60;93.60;;;;;;5055009;28;20358;-70
2022/07/18 07:09:58;;;;;;;4.63;1.52;;;29.00;92.10;;;;;;5054974;28;20051;-69
2022/07/18 07:12:23;;;;;;;5.75;1.63;;;29.20;92.30;;;;;;5055666;28;20049;-69
2022/07/18 07:14:49;;;;;;;4.80;1.70;;;29.60;89.20;;;;;;5055100;28;20053;-69
2022/07/18 07:17:14;;;;;;;5.22;1.80;;;30.00;91.50;;;;;;5054639;28;20055;-69
2022/07/18 07:19:40;;;;;;;5.47;1.45;;;30.30;91.40;;;;;;5054839;28;20414;-69
2022/07/18 07:22:05;;;;;;;10.07;1.50;;;31.00;91.00;;;;;;5054874;28;20041;-69
2022/07/18 07:24:31;;;;;;;2.88;1.30;;;31.50;90.60;;;;;;5055181;28;20049;-69
2022/07/18 07:26:56;;;;;;;3.55;1.20;;;31.80;90.30;;;;;;5054705;28;20037;-69
2022/07/18 07:29:22;;;;;;;2.30;1.00;;;32.20;89.90;;;;;;5054845;28;20045;-69
2022/07/18 07:31:48;;;;;;;3.08;1.00;;;32.00;89.60;;;;;;5054905;28;20071;-70
2022/07/18 07:34:14;;;;;;;2.85;1.13;;;32.00;88.40;;;;;;5055159;28;20378;-70
2022/07/18 07:36:40;;;;;;;5.38;1.23;;;32.30;88.30;;;;;;5054715;28;20052;-70
2022/07/18 07:39:06;;;;;;;5.75;1.83;;;32.60;87.60;;;;;;5055205;28;20052;-70
2022/07/18 07:41:32;;;;;;;3.53;1.55;;;32.60;85.10;;;;;;5054677;28;20040;-70
2022/07/18 07:43:57;;;;;;;2.78;1.10;;;32.80;86.60;;;;;;5054928;28;20098;-70
2022/07/18 07:46:23;;;;;;;4.10;1.10;;;33.30;86.20;;;;;;5055102;28;20037;-69
2022/07/18 07:48:48;;;;;;;8.55;1.42;;;32.90;82.30;;;;;;5054711;28;20543;-69
2022/07/18 07:51:15;;;;;;;4.03;1.00;;;32.20;80.90;;;;;;5055047;28;20124;-69
2022/07/18 07:53:41;;;;;;;3.38;1.35;;;31.50;84.10;;;;;;5054585;28;20094;-69
2022/07/18 07:56:06;;;;;;;3.75;1.40;;;31.40;85.10;;;;;;5054894;28;20053;-69
2022/07/18 07:58:32;;;;;;;2.88;1.20;;;32.00;84.60;;;;;;5055042;28;20049;-69
2022/07/18 08:00:58;;;;;;;4.95;1.00;;;32.30;84.60;;;;;;5054642;28;20099;-69
2022/07/18 08:03:24;;;;;;;4.22;1.77;;;32.80;83.10;;;;;;5054960;28;20068;-70
2022/07/18 08:05:50;;;;;;;3.03;1.20;;;32.90;83.50;;;;;;5054298;28;20048;-70
2022/07/18 08:08:17;;;;;;;2.58;1.00;;;32.90;82.90;;;;;;5054243;28;20122;-69
2022/07/18 08:10:44;;;;;;;4.28;0.80;;;32.90;81.70;;;;;;5054424;28;20041;-70
2022/07/18 08:13:11;;;;;;;3.85;1.42;;;32.90;82.90;;;;;;5054413;28;20041;-69
2022/07/18 08:15:37;;;;;;;5.00;1.20;;;32.70;81.70;;;;;;5054387;28;20133;-69
2022/07/18 08:18:02;;;;;;;4.90;1.30;;;32.80;82.40;;;;;;5054471;28;20442;-71
2022/07/18 08:20:28;;;;;;;4.05;1.05;;;32.50;81.70;;;;;;5054030;28;20041;-69
2022/07/18 08:22:58;;;;;;;4.82;1.00;;;32.00;82.30;;;;;;5054225;28;20057;-69
2022/07/18 08:25:25;;;;;;;2.90;1.15;;;31.50;82.10;;;;;;5054686;28;20421;-70
2022/07/18 08:27:51;;;;;;;3.45;1.10;;;31.20;83.40;;;;;;5054261;28;20037;-69
2022/07/18 08:30:17;;;;;;;5.55;1.05;;;31.30;83.00;;;;;;5054220;28;20044;-69
2022/07/18 08:32:43;;;;;;;3.25;1.17;;;31.60;83.40;;;;;;5053982;28;20608;-69
2022/07/18 08:35:09;;;;;;;4.50;1.15;;;32.00;83.60;;;;;;5054337;28;20045;-69
2022/07/18 08:37:35;;;;;;;3.08;1.27;;;32.50;83.30;;;;;;5057990;28;20036;-69
2022/07/18 08:40:00;;;;;;;10.52;1.38;;;32.60;83.00;;;;;;5057776;28;20049;-70
2022/07/18 08:42:27;;;;;;;2.78;0.90;;;33.00;82.40;;;;;;5058129;28;20033;-69
2022/07/18 08:44:56;;;;;;;5.47;1.10;;;33.60;82.50;;;;;;5057779;28;20071;-69
2022/07/18 08:47:23;;;;;;;4.97;1.60;;;34.10;80.90;;;;;;5057523;28;20140;-69
2022/07/18 08:49:50;;;;;;;2.50;0.82;;;33.80;80.20;;;;;;5057359;28;20049;-70
2022/07/18 08:52:16;;;;;;;4.55;1.20;;;33.50;80.50;;;;;;5057673;28;20091;-68
2022/07/18 08:54:42;;;;;;;3.33;1.25;;;32.90;79.40;;;;;;5057619;28;20129;-70
2022/07/18 08:57:08;;;;;;;3.88;1.13;;;32.70;80.70;;;;;;5057239;28;20091;-70
2022/07/18 08:59:34;;;;;;;4.55;1.25;;;32.30;80.50;;;;;;5057486;28;20081;-68
2022/07/18 09:02:00;;;;;;;3.13;1.20;;;31.90;80.40;;;;;;5057221;28;20448;-70
2022/07/18 09:04:46;;;;;;;4.53;0.93;;;31.40;80.30;;;;;;5057424;28;20065;-69
2022/07/18 09:07:27;;;;;;;2.80;1.13;;;31.00;81.80;;;;;;5057398;28;20061;-70
2022/07/18 09:09:58;;;;;;;2.10;1.00;;;30.70;80.90;;;;;;5057166;28;20556;-70
2022/07/18 09:12:25;;;;;;;5.28;1.27;;;30.30;81.10;;;;;;5057895;28;20106;-69
2022/07/18 09:14:51;;;;;;;3.97;1.15;;;29.80;81.40;;;;;;5057779;28;20048;-69
2022/07/18 09:17:22;;;;;;;8.20;1.35;;;29.60;82.20;;;;;;5057176;28;20101;-68
2022/07/18 09:20:14;;;;;;;4.47;1.33;;;29.50;83.50;;;;;;5057665;28;20045;-69
2022/07/18 09:22:41;;;;;;;3.70;1.10;;;29.50;81.60;;;;;;5057288;28;20056;-70
2022/07/18 09:25:13;;;;;;;5.07;1.30;;;29.70;82.80;;;;;;5057131;28;20044;-69
2022/07/18 09:27:41;;;;;;;4.50;1.17;;;29.80;82.50;;;;;;5057597;28;20045;-69
2022/07/18 09:30:17;;;;;;;3.25;1.20;;;29.90;83.10;;;;;;5056961;28;20037;-69
2022/07/18 09:32:45;;;;;;;5.18;1.10;;;30.10;83.70;;;;;;5057160;28;20124;-70
2022/07/18 09:35:14;;;;;;;5.03;1.10;;;30.10;83.70;;;;;;5056952;28;20044;-69
2022/07/18 09:37:51;;;;;;;3.97;1.02;;;30.30;84.40;;;;;;5057250;28;20045;-69
2022/07/18 09:40:18;;;;;;;3.58;0.82;;;30.50;83.30;;;;;;5056801;28;20048;-70
2022/07/18 09:42:50;;;;;;;3.42;1.00;;;30.70;81.30;;;;;;5056722;28;20048;-69
2022/07/18 09:45:16;;;;;;;4.63;0.90;;;30.90;82.60;;;;;;5056796;28;20048;-69
2022/07/18 09:47:50;;;;;;;3.80;1.33;;;30.90;81.80;;;;;;5056693;28;20271;-70
2022/07/18 09:50:21;;;;;;;4.43;1.67;;;31.00;79.80;;;;;;5057038;28;20132;-70
2022/07/18 09:53:05;;;;;;;3.25;1.10;;;31.00;80.40;;;;;;5056507;28;20051;-69
2022/07/18 09:55:31;;;;;;;2.42;0.80;;;30.90;79.80;;;;;;5056452;28;20052;-70
2022/07/18 09:58:02;;;;;;;3.90;1.17;;;30.90;81.20;;;;;;5056371;28;20072;-69
2022/07/18 10:00:30;;;;;;;2.67;1.00;;;30.90;81.30;;;;;;5056293;28;20041;-70
2022/07/18 10:02:58;;;;;;;4.82;1.13;;;31.00;80.80;;;;;;5022013;28;20049;-69
2022/07/18 10:05:28;;;;;;;5.72;1.17;;;30.70;80.30;;;;;;5056194;28;20331;-70
2022/07/18 10:07:54;;;;;;;3.60;1.10;;;30.80;81.10;;;;;;5056203;28;20061;-70
2022/07/18 10:10:20;;;;;;;2.97;1.02;;;31.10;81.70;;;;;;5056039;28;20105;-70
2022/07/18 10:12:46;;;;;;;2.15;1.10;;;31.20;80.90;;;;;;5056068;28;20060;-69
2022/07/18 10:15:12;;;;;;;3.28;1.13;;;31.30;80.70;;;;;;5055879;28;20041;-69
2022/07/18 10:17:38;;;;;;;5.10;1.27;;;31.40;80.90;;;;;;5056231;28;20109;-69
2022/07/18 10:20:06;;;;;;;7.63;1.52;;;31.30;80.20;;;;;;5055841;28;20045;-70
2022/07/18 10:22:42;;;;;;;3.65;0.80;;;31.30;80.90;;;;;;5055801;28;20477;-69
2022/07/18 10:25:10;;;;;;;2.03;0.90;;;31.50;80.50;;;;;;5055764;28;20060;-69
2022/07/18 10:27:49;;;;;;;11.23;1.33;;;31.50;81.10;;;;;;5056259;28;20135;-69
2022/07/18 10:30:15;;;;;;;3.50;1.40;;;31.60;81.10;;;;;;5055876;28;20061;-69
2022/07/18 10:32:42;;;;;;;3.88;1.33;;;31.60;79.70;;;;;;5055672;28;20041;-69
2022/07/18 10:35:10;;;;;;;3.10;1.33;;;31.30;79.40;;;;;;5055776;28;20088;-69
2022/07/18 10:37:37;;;;;;;4.10;0.80;;;31.20;79.60;;;;;;5056113;28;20178;-69
2022/07/18 10:40:28;;;;;;;4.35;1.42;;;31.40;80.40;;;;;;5056221;28;20119;-69
2022/07/18 10:43:30;;;;;;;3.47;1.20;;;31.40;80.20;;;;;;5056158;28;20052;-69
2022/07/18 10:46:00;;;;;;;3.70;1.35;;;31.60;80.30;;;;;;5055408;28;20087;-70
2022/07/18 10:48:35;;;;;;;2.85;1.40;;;31.90;77.80;;;;;;5055889;28;20323;-69
2022/07/18 10:51:10;;;;;;;3.70;1.48;;;32.10;76.00;;;;;;5055898;28;20075;-69
2022/07/18 10:53:59;;;;;;;2.92;1.30;;;32.00;76.60;;;;;;5055403;28;20041;-70
2022/07/18 10:56:27;;;;;;;6.13;1.40;;;32.10;76.60;;;;;;5055239;28;20496;-70
2022/07/18 10:58:55;;;;;;;3.70;1.40;;;32.20;78.20;;;;;;5054801;28;20052;-69
2022/07/18 11:01:22;;;;;;;2.67;1.10;;;32.40;78.00;;;;;;5055139;28;20037;-70
2022/07/18 11:03:49;;;;;;;6.85;1.35;;;32.20;77.60;;;;;;5055260;28;20049;-71
2022/07/18 11:06:15;;;;;;;4.57;1.30;;;32.20;77.40;;;;;;5055103;28;20063;-70
2022/07/18 11:08:40;;;;;;;3.95;1.25;;;32.30;77.80;;;;;;5055024;28;20119;-69
2022/07/18 11:11:09;;;;;;;3.13;1.30;;;32.30;77.50;;;;;;5055108;28;20361;-69
2022/07/18 11:13:40;;;;;;;6.22;1.40;;;32.40;77.50;;;;;;5055041;28;20036;-69
2022/07/18 11:16:13;;;;;;;6.47;1.90;;;32.30;75.70;;;;;;5055589;28;20388;-69
2022/07/18 11:18:39;;;;;;;3.53;1.33;;;32.40;75.00;;;;;;5055483;28;20044;-69
2022/07/18 11:21:16;;;;;;;12.57;1.98;;;32.20;74.10;;;;;;5054788;28;20106;-69
2022/07/18 11:23:43;;;;;;;4.45;1.45;;;32.40;75.10;;;;;;5054982;28;20052;-69
2022/07/18 11:26:14;;;;;;;3.35;1.67;;;32.50;76.40;;;;;;5054680;28;20041;-70
2022/07/18 11:28:41;;;;;;;4.10;1.40;;;32.50;74.90;;;;;;5054947;28;20099;-69
2022/07/18 11:31:09;;;;;;;4.00;1.73;;;32.60;75.30;;;;;;5055439;28;20045;-70
2022/07/18 11:33:37;;;;;;;5.00;1.50;;;32.70;75.50;;;;;;5054744;28;20067;-69
2022/07/18 11:36:15;;;;;;;3.78;1.40;;;32.70;76.10;;;;;;5055384;28;20055;-70
2022/07/18 11:38:52;;;;;;;3.72;1.60;;;32.70;74.80;;;;;;5054668;28;20044;-70
2022/07/18 11:41:19;;;;;;;5.50;1.90;;;32.90;74.90;;;;;;5054727;28;20051;-70
2022/07/18 11:43:46;;;;;;;4.95;1.65;;;33.00;73.50;;;;;;5054689;28;20048;-70
2022/07/18 11:46:14;;;;;;;6.10;2.20;;;32.90;74.30;;;;;;5054548;28;20072;-69
2022/07/18 11:48:41;;;;;;;3.80;1.52;;;32.90;72.50;;;;;;5055191;28;20048;-70
2022/07/18 11:51:19;;;;;;;4.65;1.85;;;32.80;72.80;;;;;;5055113;28;20111;-69
2022/07/18 11:53:52;;;;;;;4.60;1.50;;;32.60;69.80;;;;;;5054486;28;20041;-70
2022/07/18 11:56:20;;;;;;;3.38;1.40;;;32.40;73.40;;;;;;5054788;28;20048;-70
2022/07/18 11:58:48;;;;;;;3.15;1.60;;;32.50;73.00;;;;;;5053811;28;20056;-68
2022/07/18 12:01:13;;;;;;;3.35;1.67;;;32.70;74.20;;;;;;5054585;28;20132;-69
2022/07/18 12:03:48;;;;;;;5.53;2.00;;;32.60;71.50;;;;;;5054930;28;20096;-70
2022/07/18 12:06:21;;;;;;;3.70;1.92;;;32.70;72.10;;;;;;5054444;28;20060;-70
2022/07/18 12:08:51;;;;;;;3.47;1.80;;;32.90;71.20;;;;;;5054344;28;20041;-70
2022/07/18 12:11:34;;;;;;;3.95;1.50;;;32.90;72.00;;;;;;5056715;28;20462;-69
2022/07/18 12:14:08;;;;;;;6.25;1.85;;;32.90;70.50;;;;;;5058358;28;20053;-70
2022/07/18 12:16:48;;;;;;;3.47;1.83;;;32.90;71.30;;;;;;5058778;28;20132;-69
2022/07/18 12:19:24;;;;;;;4.35;2.30;;;32.90;72.10;;;;;;5058648;28;20040;-70
2022/07/18 12:22:04;;;;;;;3.92;1.75;;;32.90;71.00;;;;;;5058278;28;20041;-69
2022/07/18 12:24:34;;;;;;;3.90;1.80;;;32.80;70.30;;;;;;5058108;28;20045;-70
2022/07/18 12:27:13;;;;;;;3.70;1.88;;;32.80;71.30;;;;;;5057823;28;20472;-69
2022/07/18 12:30:03;;;;;;;3.83;2.10;;;32.80;69.20;;;;;;5058016;28;20346;-70
2022/07/18 12:32:56;;;;;;;3.35;1.65;;;32.80;69.50;;;;;;5058151;28;20439;-70
2022/07/18 12:35:35;;;;;;;4.22;1.73;;;32.70;71.30;;;;;;5058495;28;20041;-69
2022/07/18 12:38:04;;;;;;;3.83;2.05;;;32.80;71.20;;;;;;5057885;28;20055;-69
2022/07/18 12:40:45;;;;;;;4.28;1.83;;;33.00;72.30;;;;;;5058494;28;20044;-69
2022/07/18 12:43:16;;;;;;;3.53;1.80;;;33.30;71.60;;;;;;5058378;28;20059;-70
2022/07/18 12:45:43;;;;;;;4.25;1.77;;;33.50;70.90;;;;;;5057683;28;20095;-69
2022/07/18 12:48:10;;;;;;;4.75;2.22;;;33.40;71.00;;;;;;5058181;28;20037;-70
2022/07/18 12:50:37;;;;;;;5.45;2.10;;;33.30;70.30;;;;;;5057948;28;20128;-69